createdAt,value
2018-11-27T00:00:31.925Z,76.07
2018-11-27T00:03:02.934Z,71.63
2018-11-27T00:05:32.645Z,73.60
2018-11-27T00:08:01.767Z,67.60
2018-11-27T00:10:32.050Z,68.63
2018-11-27T00:13:01.069Z,63.30
2018-11-27T00:15:30.108Z,69.57
2018-11-27T00:17:59.070Z,68.97
2018-11-27T00:20:29.496Z,60.73
2018-11-27T00:22:58.518Z,68.10
2018-11-27T00:25:27.535Z,68.63
2018-11-27T00:27:56.515Z,70.77
2018-11-27T00:30:25.519Z,68.53
2018-11-27T00:32:54.534Z,76.33
2018-11-27T00:35:23.515Z,69.70
2018-11-27T00:37:52.485Z,73.70
2018-11-27T00:40:22.659Z,77.47
2018-11-27T00:42:51.962Z,65.77
2018-11-27T00:45:21.592Z,70.60
2018-11-27T00:47:51.389Z,72.30
2018-11-27T00:50:22.354Z,79.67
2018-11-27T00:52:51.343Z,76.83
2018-11-27T00:55:21.035Z,100.50
2018-11-27T00:57:51.089Z,100.40
2018-11-27T01:00:21.989Z,106.87
2018-11-27T01:02:51.094Z,105.93
2018-11-27T01:05:22.217Z,82.53
2018-11-27T01:07:51.214Z,80.20
2018-11-27T01:10:24.029Z,70.13
2018-11-27T01:12:53.212Z,76.57
2018-11-27T01:15:22.334Z,71.87
2018-11-27T01:17:59.611Z,73.47
2018-11-27T01:20:29.294Z,74.47
2018-11-27T01:22:58.286Z,71.20
2018-11-27T01:25:27.343Z,77.83
2018-11-27T01:27:56.418Z,75.57
2018-11-27T01:30:25.383Z,84.03
2018-11-27T01:32:54.498Z,83.60
2018-11-27T01:35:24.241Z,81.80
2018-11-27T01:37:54.180Z,82.60
2018-11-27T01:40:26.214Z,79.17
2018-11-27T01:42:56.992Z,82.53
2018-11-27T01:45:26.409Z,78.57
2018-11-27T01:47:55.502Z,80.70
2018-11-27T01:50:24.504Z,79.87
2018-11-27T01:52:53.586Z,85.87
2018-11-27T01:55:23.561Z,76.57
2018-11-27T01:57:52.474Z,95.03
2018-11-27T02:00:29.003Z,84.90
2018-11-27T02:02:58.769Z,81.97
2018-11-27T02:05:28.112Z,73.23
2018-11-27T02:07:57.194Z,83.60
2018-11-27T02:10:26.198Z,89.50
2018-11-27T02:13:00.983Z,77.47
2018-11-27T02:15:28.911Z,80.40
2018-11-27T02:17:58.092Z,73.37
2018-11-27T02:20:27.145Z,72.37
2018-11-27T02:22:56.206Z,66.27
2018-11-27T02:25:27.500Z,79.00
2018-11-27T02:27:56.710Z,75.47
2018-11-27T02:30:26.780Z,82.80
2018-11-27T02:32:55.809Z,79.13
2018-11-27T02:35:25.817Z,68.60
2018-11-27T02:37:57.520Z,75.93
2018-11-27T02:40:26.649Z,84.17
2018-11-27T02:42:55.669Z,81.40
2018-11-27T02:45:25.597Z,83.40
2018-11-27T02:47:54.978Z,73.20
2018-11-27T02:50:24.841Z,81.77
2018-11-27T02:52:54.052Z,84.23
2018-11-27T02:55:24.237Z,80.30
2018-11-27T02:57:53.238Z,82.13
2018-11-27T03:00:26.204Z,83.43
2018-11-27T03:02:55.400Z,80.23
2018-11-27T03:05:33.866Z,82.43
2018-11-27T03:08:02.890Z,69.43
2018-11-27T03:10:31.826Z,74.40
2018-11-27T03:13:00.791Z,72.40
2018-11-27T03:15:29.911Z,73.33
2018-11-27T03:17:58.917Z,71.93
2018-11-27T03:20:27.939Z,75.47
2018-11-27T03:22:56.861Z,89.87
2018-11-27T03:25:25.763Z,80.43
2018-11-27T03:27:55.104Z,84.93
2018-11-27T03:30:26.435Z,91.27
2018-11-27T03:32:55.493Z,82.20
2018-11-27T03:35:25.482Z,79.67
2018-11-27T03:37:54.461Z,77.70
2018-11-27T03:40:24.726Z,85.60
2018-11-27T03:42:53.709Z,93.57
2018-11-27T03:45:23.429Z,83.13
2018-11-27T03:47:52.393Z,91.80
2018-11-27T03:50:23.594Z,90.03
2018-11-27T03:52:52.538Z,91.17
2018-11-27T03:55:21.578Z,90.50
2018-11-27T03:57:51.250Z,87.50
2018-11-27T04:00:21.907Z,94.40
2018-11-27T04:02:54.093Z,84.00
2018-11-27T04:05:23.812Z,85.07
2018-11-27T04:07:52.858Z,84.47
2018-11-27T04:10:21.854Z,91.27
2018-11-27T04:12:50.855Z,95.50
2018-11-27T04:15:19.798Z,95.10
2018-11-27T04:17:48.831Z,86.67
2018-11-27T04:20:17.845Z,96.10
2018-11-27T04:22:46.779Z,86.43
2018-11-27T04:25:16.734Z,84.20
2018-11-27T04:27:46.306Z,99.63
2018-11-27T04:30:16.449Z,100.80
2018-11-27T04:32:45.417Z,102.37
2018-11-27T04:35:16.364Z,91.87
2018-11-27T04:37:45.493Z,96.37
2018-11-27T04:40:17.623Z,88.67
2018-11-27T04:42:46.772Z,81.47
2018-11-27T04:45:21.273Z,102.20
2018-11-27T04:47:50.403Z,90.53
2018-11-27T04:50:19.660Z,91.67
2018-11-27T04:52:48.754Z,84.37
2018-11-27T04:55:22.487Z,96.53
2018-11-27T04:57:52.384Z,97.10
2018-11-27T05:00:26.374Z,85.63
2018-11-27T05:02:55.456Z,87.40
2018-11-27T05:05:24.404Z,97.47
2018-11-27T05:07:53.435Z,93.60
2018-11-27T05:10:24.210Z,109.00
2018-11-27T05:12:53.214Z,99.30
2018-11-27T05:15:23.761Z,84.87
2018-11-27T05:17:56.882Z,94.83
2018-11-27T05:20:27.183Z,100.93
2018-11-27T05:22:56.109Z,95.37
2018-11-27T05:25:25.220Z,97.33
2018-11-27T05:27:56.269Z,105.00
2018-11-27T05:30:26.414Z,100.47
2018-11-27T05:32:55.407Z,110.43
2018-11-27T05:35:27.706Z,110.77
2018-11-27T05:37:56.889Z,120.30
2018-11-27T05:40:26.675Z,122.60
2018-11-27T05:43:00.016Z,117.87
2018-11-27T05:45:29.129Z,114.27
2018-11-27T05:47:58.105Z,109.90
2018-11-27T05:50:28.401Z,123.63
2018-11-27T05:52:57.442Z,108.57
2018-11-27T05:55:26.363Z,115.30
2018-11-27T05:57:56.091Z,123.80
2018-11-27T06:00:28.044Z,138.40
2018-11-27T06:02:58.129Z,137.47
2018-11-27T06:05:27.177Z,134.83
2018-11-27T06:07:56.157Z,116.77
2018-11-27T06:10:25.645Z,110.10
2018-11-27T06:12:54.582Z,103.10
2018-11-27T06:15:24.497Z,98.10
2018-11-27T06:17:55.980Z,115.87
2018-11-27T06:20:25.144Z,102.87
2018-11-27T06:22:54.700Z,83.90
2018-11-27T06:25:27.680Z,89.93
2018-11-27T06:28:05.695Z,89.00
2018-11-27T06:30:35.641Z,86.93
2018-11-27T06:33:04.743Z,91.40
2018-11-27T06:35:38.616Z,74.57
2018-11-27T06:38:09.023Z,82.63
2018-11-27T06:40:37.976Z,98.80
2018-11-27T06:43:10.612Z,92.40
2018-11-27T06:45:40.554Z,96.37
2018-11-27T06:48:09.867Z,104.50
2018-11-27T06:50:38.922Z,100.53
2018-11-27T06:53:08.526Z,114.23
2018-11-27T06:55:37.788Z,113.50
2018-11-27T06:58:07.950Z,115.63
2018-11-27T07:00:37.007Z,109.80
2018-11-27T07:03:09.440Z,102.73
2018-11-27T07:05:38.644Z,91.23
2018-11-27T07:08:09.206Z,90.27
2018-11-27T07:10:39.437Z,95.97
2018-11-27T07:13:13.794Z,96.87
2018-11-27T07:15:42.745Z,94.23
2018-11-27T07:18:11.623Z,89.90
2018-11-27T07:20:40.541Z,94.13
2018-11-27T07:23:09.699Z,99.23
2018-11-27T07:25:38.856Z,102.00
2018-11-27T07:28:07.892Z,98.83
2018-11-27T07:30:37.857Z,113.03
2018-11-27T07:33:07.434Z,96.80
2018-11-27T07:35:37.177Z,97.70
2018-11-27T07:38:06.598Z,85.27
2018-11-27T07:40:35.613Z,104.60
2018-11-27T07:43:06.995Z,108.50
2018-11-27T07:45:36.092Z,97.90
2018-11-27T07:48:05.075Z,107.47
2018-11-27T07:50:33.967Z,97.80
2018-11-27T07:53:02.901Z,95.83
2018-11-27T07:55:31.960Z,93.50
2018-11-27T07:58:00.954Z,97.23
2018-11-27T08:00:31.274Z,75.27
2018-11-27T08:03:00.223Z,75.93
2018-11-27T08:05:32.431Z,77.73
2018-11-27T08:08:01.467Z,72.23
2018-11-27T08:10:31.608Z,68.73
2018-11-27T08:13:00.538Z,69.30
2018-11-27T08:15:30.685Z,71.83
2018-11-27T08:17:59.739Z,68.33
2018-11-27T08:20:30.425Z,64.00
2018-11-27T08:22:59.579Z,75.70
2018-11-27T08:25:28.503Z,75.63
2018-11-27T08:27:57.518Z,71.93
2018-11-27T08:30:26.401Z,78.80
2018-11-27T08:32:56.117Z,80.97
2018-11-27T08:35:27.922Z,84.23
2018-11-27T08:37:58.761Z,76.90
2018-11-27T08:40:28.924Z,107.97
2018-11-27T08:42:57.889Z,120.80
2018-11-27T08:45:26.976Z,112.83
2018-11-27T08:47:56.603Z,96.27
2018-11-27T08:50:26.690Z,101.10
2018-11-27T08:52:58.057Z,97.13
2018-11-27T08:55:28.618Z,100.10
2018-11-27T08:57:57.772Z,97.93
2018-11-27T09:00:27.245Z,85.57
2018-11-27T09:02:56.198Z,89.43
2018-11-27T09:05:25.265Z,87.50
2018-11-27T09:07:54.294Z,85.80
2018-11-27T09:10:25.351Z,80.20
2018-11-27T09:12:55.763Z,74.30
2018-11-27T09:15:25.161Z,77.00
2018-11-27T09:17:56.797Z,73.97
2018-11-27T09:20:26.064Z,81.73
2018-11-27T09:22:55.009Z,84.80
2018-11-27T09:25:24.010Z,79.00
2018-11-27T09:27:53.078Z,83.57
2018-11-27T09:30:24.656Z,73.53
2018-11-27T09:32:54.558Z,81.60
2018-11-27T09:35:23.546Z,76.27
2018-11-27T09:37:53.908Z,68.80
2018-11-27T09:40:22.898Z,66.33
2018-11-27T09:42:51.858Z,66.73
2018-11-27T09:45:24.070Z,59.83
2018-11-27T09:47:54.402Z,67.10
2018-11-27T09:50:23.314Z,65.03
2018-11-27T09:52:53.624Z,58.13
2018-11-27T09:55:24.653Z,59.63
2018-11-27T09:57:58.795Z,69.10
2018-11-27T10:00:24.726Z,63.27
2018-11-27T10:02:54.976Z,62.83
2018-11-27T10:05:24.089Z,67.53
2018-11-27T10:07:53.108Z,65.87
2018-11-27T10:10:23.133Z,58.77
2018-11-27T10:12:52.163Z,57.93
2018-11-27T10:15:22.250Z,58.20
2018-11-27T10:17:53.365Z,61.97
2018-11-27T10:20:23.501Z,55.57
2018-11-27T10:22:52.556Z,57.33
2018-11-27T10:25:21.497Z,53.13
2018-11-27T10:27:50.534Z,56.73
2018-11-27T10:30:20.822Z,62.40
2018-11-27T10:32:50.472Z,65.00
2018-11-27T10:35:24.038Z,50.10
2018-11-27T10:37:52.987Z,47.97
2018-11-27T10:40:22.206Z,37.27
2018-11-27T10:42:51.246Z,34.17
2018-11-27T10:45:21.267Z,33.13
2018-11-27T10:47:51.347Z,34.10
2018-11-27T10:50:20.462Z,37.17
2018-11-27T10:52:54.469Z,36.47
2018-11-27T10:55:24.220Z,32.37
2018-11-27T10:57:53.237Z,36.35
2018-11-27T11:00:29.488Z,36.13
2018-11-27T11:03:03.781Z,35.60
2018-11-27T11:05:33.855Z,33.23
2018-11-27T11:08:02.831Z,37.63
2018-11-27T11:10:31.826Z,34.60
2018-11-27T11:13:00.833Z,44.00
2018-11-27T11:15:29.806Z,37.80
2018-11-27T11:17:58.870Z,35.27
2018-11-27T11:20:27.862Z,35.63
2018-11-27T11:22:56.879Z,32.33
2018-11-27T11:25:26.149Z,36.13
2018-11-27T11:27:57.301Z,31.63
2018-11-27T11:30:26.319Z,33.80
2018-11-27T11:32:55.382Z,33.00
2018-11-27T11:35:24.312Z,28.97
2018-11-27T11:37:53.358Z,29.27
2018-11-27T11:40:25.180Z,27.33
2018-11-27T11:42:58.766Z,32.73
2018-11-27T11:45:27.788Z,28.97
2018-11-27T11:47:56.757Z,29.47
2018-11-27T11:50:27.130Z,28.17
2018-11-27T11:53:27.750Z,27.97
2018-11-27T11:55:56.758Z,32.37
2018-11-27T11:58:25.690Z,31.17
2018-11-27T12:00:55.785Z,31.73
2018-11-27T12:03:24.733Z,30.77
2018-11-27T12:05:53.682Z,29.77
2018-11-27T12:08:22.671Z,29.27
2018-11-27T12:10:51.727Z,28.53
2018-11-27T12:13:20.658Z,31.50
2018-11-27T12:15:49.633Z,29.47
2018-11-27T12:18:18.604Z,27.13
2018-11-27T12:20:47.638Z,30.03
2018-11-27T12:23:16.622Z,27.73
2018-11-27T12:25:45.605Z,28.73
2018-11-27T12:28:15.129Z,29.97
2018-11-27T12:30:43.526Z,28.70
2018-11-27T12:33:12.519Z,28.53
2018-11-27T12:35:41.576Z,32.33
2018-11-27T12:38:10.503Z,32.90
2018-11-27T12:40:39.607Z,27.37
2018-11-27T12:43:08.655Z,25.03
2018-11-27T12:45:37.663Z,26.47
2018-11-27T12:48:06.754Z,23.07
2018-11-27T12:50:45.226Z,27.17
2018-11-27T12:53:16.966Z,29.67
2018-11-27T12:55:45.903Z,26.73
2018-11-27T12:58:14.868Z,27.57
2018-11-27T13:00:43.939Z,28.47
2018-11-27T13:03:12.910Z,24.10
2018-11-27T13:05:43.719Z,22.03
2018-11-27T13:08:14.870Z,24.70
2018-11-27T13:10:43.827Z,27.23
2018-11-27T13:13:12.763Z,28.77
2018-11-27T13:15:42.313Z,27.93
2018-11-27T13:18:11.412Z,26.57
2018-11-27T13:20:40.925Z,27.27
2018-11-27T13:23:10.146Z,31.93
2018-11-27T13:25:41.862Z,27.30
2018-11-27T13:28:12.206Z,29.10
2018-11-27T13:30:56.098Z,28.93
2018-11-27T13:33:27.588Z,24.60
2018-11-27T13:35:56.549Z,26.03
2018-11-27T13:38:26.198Z,25.53
2018-11-27T13:40:54.587Z,23.60
2018-11-27T13:43:30.658Z,31.07
2018-11-27T13:46:00.779Z,24.30
2018-11-27T13:48:29.729Z,27.17
2018-11-27T13:50:58.676Z,28.47
2018-11-27T13:53:27.550Z,29.43
2018-11-27T13:55:56.455Z,28.50
2018-11-27T13:58:25.571Z,29.30
2018-11-27T14:00:54.527Z,27.40
2018-11-27T14:03:23.465Z,24.83
2018-11-27T14:05:52.470Z,29.13
2018-11-27T14:08:21.462Z,24.20
2018-11-27T14:10:50.410Z,27.13
2018-11-27T14:13:19.447Z,25.67
2018-11-27T14:15:49.817Z,31.60
2018-11-27T14:18:18.821Z,30.50
2018-11-27T14:20:47.927Z,32.80
2018-11-27T14:23:16.879Z,25.50
2018-11-27T14:25:45.842Z,26.70
2018-11-27T14:28:14.842Z,26.00
2018-11-27T14:30:43.814Z,26.13
2018-11-27T14:33:12.810Z,28.10
2018-11-27T14:35:41.847Z,27.37
2018-11-27T14:38:10.790Z,26.17
2018-11-27T14:40:39.800Z,23.70
2018-11-27T14:43:08.789Z,23.03
2018-11-27T14:45:37.886Z,23.80
2018-11-27T14:48:07.705Z,22.67
2018-11-27T14:50:36.733Z,26.90
2018-11-27T14:53:05.916Z,24.03
2018-11-27T14:55:35.718Z,27.93
2018-11-27T14:58:04.804Z,23.47
2018-11-27T15:00:33.885Z,25.73
2018-11-27T15:03:02.862Z,24.17
2018-11-27T15:05:34.174Z,26.23
2018-11-27T15:08:03.843Z,25.07
2018-11-27T15:10:32.929Z,20.70
2018-11-27T15:13:03.146Z,21.93
2018-11-27T15:15:32.014Z,22.73
2018-11-27T15:18:00.925Z,20.53
2018-11-27T15:20:29.859Z,23.97
2018-11-27T15:22:58.829Z,19.37
2018-11-27T15:25:27.754Z,20.23
2018-11-27T15:27:58.030Z,22.27
2018-11-27T15:30:28.809Z,24.97
2018-11-27T15:33:00.367Z,26.20
2018-11-27T15:35:29.327Z,23.97
2018-11-27T15:37:58.334Z,23.17
2018-11-27T15:40:29.642Z,27.73
2018-11-27T15:42:58.790Z,25.10
2018-11-27T15:45:35.041Z,24.57
2018-11-27T15:48:06.991Z,22.30
2018-11-27T15:50:35.981Z,26.20
2018-11-27T15:53:05.064Z,27.60
2018-11-27T15:55:36.721Z,25.97
2018-11-27T15:58:10.342Z,22.07
2018-11-27T16:00:40.953Z,19.47
2018-11-27T16:03:10.007Z,20.43
2018-11-27T16:05:39.759Z,18.90
2018-11-27T16:08:10.381Z,18.47
2018-11-27T16:10:39.241Z,17.97
2018-11-27T16:13:08.390Z,20.77
2018-11-27T16:15:37.696Z,20.17
2018-11-27T16:18:07.508Z,18.53
2018-11-27T16:20:36.416Z,23.63
2018-11-27T16:23:05.619Z,24.17
2018-11-27T16:25:35.870Z,21.70
2018-11-27T16:28:06.338Z,22.23
2018-11-27T16:30:35.306Z,19.67
2018-11-27T16:33:04.385Z,21.63
2018-11-27T16:35:34.810Z,29.12
2018-11-27T16:38:03.770Z,22.30
2018-11-27T16:40:35.516Z,28.03
2018-11-27T16:43:04.536Z,23.77
2018-11-27T16:45:33.599Z,25.00
2018-11-27T16:48:02.530Z,18.77
2018-11-27T16:50:31.456Z,23.00
2018-11-27T16:53:00.389Z,24.23
2018-11-27T16:55:30.604Z,22.67
2018-11-27T16:57:59.554Z,22.53
2018-11-27T17:00:32.598Z,19.70
2018-11-27T17:03:02.546Z,22.20
2018-11-27T17:05:35.190Z,21.03
2018-11-27T17:08:04.105Z,24.93
2018-11-27T17:10:33.132Z,33.20
2018-11-27T17:13:02.578Z,26.47
2018-11-27T17:15:31.563Z,28.37
2018-11-27T17:18:01.759Z,28.03
2018-11-27T17:20:34.836Z,27.90
2018-11-27T17:23:05.278Z,28.33
2018-11-27T17:25:34.129Z,25.67
2018-11-27T17:28:04.779Z,31.53
2018-11-27T17:30:36.324Z,31.20
2018-11-27T17:34:08.803Z,30.23
2018-11-27T17:36:38.507Z,28.20
2018-11-27T17:39:11.259Z,30.40
2018-11-27T17:41:40.313Z,28.93
2018-11-27T17:44:12.409Z,27.40
2018-11-27T17:46:43.898Z,26.70
2018-11-27T17:49:12.803Z,28.10
2018-11-27T17:51:41.802Z,40.33
2018-11-27T17:54:10.943Z,29.87
2018-11-27T17:56:39.977Z,32.10
2018-11-27T17:59:08.950Z,31.57
2018-11-27T18:01:37.962Z,29.20
2018-11-27T18:04:07.016Z,29.07
2018-11-27T18:06:36.012Z,29.70
2018-11-27T18:09:07.724Z,25.00
2018-11-27T18:11:36.732Z,30.73
2018-11-27T18:14:05.765Z,37.23
2018-11-27T18:16:34.757Z,30.63
2018-11-27T18:19:03.719Z,31.70
2018-11-27T18:21:32.642Z,25.23
2018-11-27T18:24:01.561Z,21.60
2018-11-27T18:26:30.478Z,19.43
2018-11-27T18:28:59.408Z,18.43
2018-11-27T18:31:29.688Z,17.13
2018-11-27T18:33:58.621Z,15.20
2018-11-27T18:36:27.602Z,15.37
2018-11-27T18:38:58.039Z,14.13
2018-11-27T18:41:26.978Z,15.77
2018-11-27T18:43:55.955Z,15.33
2018-11-27T18:46:26.180Z,17.10
2018-11-27T18:48:55.101Z,15.77
2018-11-27T18:51:25.375Z,17.83
2018-11-27T18:53:55.082Z,17.60
2018-11-27T18:56:23.366Z,19.00
2018-11-27T18:58:52.294Z,19.63
2018-11-27T19:01:21.271Z,17.60
2018-11-27T19:03:50.258Z,21.37
2018-11-27T19:06:20.462Z,17.47
2018-11-27T19:08:49.394Z,17.83
2018-11-27T19:11:18.580Z,21.40
2018-11-27T19:13:47.646Z,23.37
2018-11-27T19:16:16.660Z,20.40
2018-11-27T19:18:45.535Z,20.50
2018-11-27T19:21:14.562Z,18.87
2018-11-27T19:23:43.491Z,21.27
2018-11-27T19:26:13.758Z,20.87
2018-11-27T19:28:44.338Z,14.47
2018-11-27T19:31:13.347Z,17.67
2018-11-27T19:33:42.777Z,16.87
2018-11-27T19:36:12.918Z,15.67
2018-11-27T19:38:41.874Z,18.70
2018-11-27T19:41:10.756Z,11.43
2018-11-27T19:43:39.699Z,9.53
2018-11-27T19:46:08.680Z,12.67
2018-11-27T19:48:38.139Z,8.53
2018-11-27T19:51:07.605Z,11.17
2018-11-27T19:53:36.545Z,6.80
2018-11-27T19:56:06.350Z,7.60
2018-11-27T19:58:35.410Z,7.73
2018-11-27T20:01:04.422Z,7.90
2018-11-27T20:03:33.346Z,11.33
2018-11-27T20:06:02.690Z,9.50
2018-11-27T20:08:32.138Z,11.48
2018-11-27T20:11:01.973Z,9.17
2018-11-27T20:13:31.171Z,10.40
2018-11-27T20:16:00.179Z,7.80
2018-11-27T20:18:29.548Z,9.27
2018-11-27T20:20:58.448Z,7.53
2018-11-27T20:23:27.298Z,9.30
2018-11-27T20:25:57.569Z,8.20
2018-11-27T20:28:28.124Z,6.57
2018-11-27T20:30:57.143Z,6.43
2018-11-27T20:33:26.236Z,6.03
2018-11-27T20:35:55.226Z,9.27
2018-11-27T20:38:24.305Z,7.30
2018-11-27T20:40:54.567Z,6.63
2018-11-27T20:43:23.799Z,7.47
2018-11-27T20:45:52.678Z,7.87
2018-11-27T20:48:21.733Z,5.53
2018-11-27T20:50:52.056Z,6.57
2018-11-27T20:53:21.130Z,3.83
2018-11-27T20:55:50.467Z,5.47
2018-11-27T20:58:21.134Z,5.10
2018-11-27T21:00:51.916Z,4.70
2018-11-27T21:03:20.931Z,7.27
2018-11-27T21:05:51.637Z,5.83
2018-11-27T21:08:20.621Z,6.00
2018-11-27T21:10:49.526Z,6.35
2018-11-27T21:13:18.508Z,8.23
2018-11-27T21:15:47.540Z,4.30
2018-11-27T21:18:16.458Z,5.43
2018-11-27T21:20:45.434Z,4.43
2018-11-27T21:23:14.354Z,4.27
2018-11-27T21:25:43.388Z,4.00
2018-11-27T21:28:19.140Z,3.37
2018-11-27T21:30:50.806Z,3.87
2018-11-27T21:33:19.731Z,3.70
2018-11-27T21:35:50.082Z,2.90
2018-11-27T21:38:19.173Z,2.73
2018-11-27T21:40:48.062Z,3.97
2018-11-27T21:43:17.045Z,2.40
2018-11-27T21:45:45.954Z,4.37
2018-11-27T21:48:14.862Z,1.43
2018-11-27T21:50:44.545Z,1.30
2018-11-27T21:53:13.476Z,1.20
2018-11-27T21:55:42.913Z,1.87
2018-11-27T21:58:11.915Z,1.77
2018-11-27T22:00:42.238Z,5.33
2018-11-27T22:03:12.191Z,3.27
2018-11-27T22:05:41.110Z,1.40
2018-11-27T22:08:10.070Z,1.00
2018-11-27T22:10:39.273Z,2.00
2018-11-27T22:13:10.787Z,1.40
2018-11-27T22:15:40.976Z,0.77
2018-11-27T22:18:10.881Z,1.03
2018-11-27T22:20:39.814Z,2.07
2018-11-27T22:23:09.657Z,1.13
2018-11-27T22:25:38.569Z,1.97
2018-11-27T22:28:08.642Z,4.20
2018-11-27T22:30:37.551Z,0.70
2018-11-27T22:33:07.971Z,3.03
2018-11-27T22:35:36.963Z,0.80
2018-11-27T22:38:07.740Z,1.10
2018-11-27T22:40:36.674Z,1.17
2018-11-27T22:43:06.560Z,1.10
2018-11-27T22:45:37.099Z,1.27
2018-11-27T22:48:06.925Z,1.80
2018-11-27T22:50:35.988Z,2.33
2018-11-27T22:53:05.290Z,0.90
2018-11-27T22:55:34.254Z,0.80
2018-11-27T22:58:03.175Z,1.47
2018-11-27T23:00:37.298Z,1.03
2018-11-27T23:03:06.302Z,2.13
2018-11-27T23:05:35.280Z,0.47
2018-11-27T23:08:04.391Z,0.67
2018-11-27T23:10:35.047Z,1.50
2018-11-27T23:13:05.750Z,0.60
2018-11-27T23:15:34.742Z,1.07
2018-11-27T23:18:03.670Z,0.63
2018-11-27T23:20:32.706Z,0.40
2018-11-27T23:23:01.616Z,0.83
2018-11-27T23:25:30.489Z,1.00
2018-11-27T23:27:59.445Z,2.20
2018-11-27T23:30:28.370Z,0.53
2018-11-27T23:32:57.370Z,0.50
2018-11-27T23:35:26.307Z,1.43
2018-11-27T23:37:55.278Z,1.17
2018-11-27T23:40:25.628Z,0.80
2018-11-27T23:42:54.565Z,0.63
2018-11-27T23:45:24.281Z,2.20
2018-11-27T23:47:53.237Z,1.67
2018-11-27T23:50:22.909Z,0.73
2018-11-27T23:52:51.899Z,1.20
2018-11-27T23:55:21.205Z,1.47
2018-11-27T23:57:50.165Z,1.97
